Time;durP1;ratioP1;P1;durP2;ratioP2;P2;SDS_P1;SDS_P2;PMS_P1;PMS_P2;Temp;Humidity;BMP_temperature;BMP_pressure;BME280_temperature;BME280_humidity;BME280_pressure;Samples;Min_cycle;Max_cycle;Signal;HPM_P1;HPM_P2
2021/09/15 00:01:38;;;;;;;11.85;6.72;;;;;;;15.09;76.57;101614.54;1747577;81;21754;-85
2021/09/15 00:04:05;;;;;;;11.97;6.83;;;;;;;15.06;76.64;101616.71;1744519;81;21032;-83
2021/09/15 00:06:36;;;;;;;15.55;7.05;;;;;;;15.03;76.64;101615.31;1747300;81;21114;-83
2021/09/15 00:09:05;;;;;;;8.90;7.00;;;;;;;15.00;76.75;101620.98;1768412;81;21165;-83
2021/09/15 00:11:30;;;;;;;13.13;7.15;;;;;;;15.00;76.88;101618.33;1719942;83;20986;-83
2021/09/15 00:13:57;;;;;;;13.70;7.45;;;;;;;15.01;76.90;101618.36;1787923;80;21734;-83
2021/09/15 00:16:26;;;;;;;13.43;8.03;;;;;;;15.02;76.95;101615.30;1756134;80;21115;-83
2021/09/15 00:18:56;;;;;;;13.78;8.33;;;;;;;15.03;76.99;101610.00;1768883;80;21470;-83
2021/09/15 00:21:22;;;;;;;13.48;7.62;;;;;;;15.04;76.95;101610.92;1719991;81;21107;-83
2021/09/15 00:23:48;;;;;;;12.95;8.25;;;;;;;15.03;76.90;101606.03;1788186;80;21512;-83
2021/09/15 00:26:15;;;;;;;14.65;8.28;;;;;;;14.99;76.88;101605.95;1787947;80;21768;-82
2021/09/15 00:28:42;;;;;;;14.53;8.93;;;;;;;14.95;76.92;101606.31;1787796;80;21058;-82
2021/09/15 00:31:09;;;;;;;12.05;8.80;;;;;;;14.92;76.98;101616.44;1787757;80;21686;-82
2021/09/15 00:33:36;;;;;;;14.13;8.20;;;;;;;14.90;77.07;101610.62;1787773;80;21154;-82
2021/09/15 00:36:03;;;;;;;14.43;8.68;;;;;;;14.91;77.12;101611.98;1787785;80;21121;-83
2021/09/15 00:38:29;;;;;;;12.70;8.50;;;;;;;14.89;77.14;101613.70;1787851;80;21841;-83
2021/09/15 00:40:59;;;;;;;15.75;8.68;;;;;;;14.87;77.24;101612.78;1768692;81;21039;-83
2021/09/15 00:43:26;;;;;;;12.33;7.83;;;;;;;14.88;77.23;101608.37;1720481;83;21033;-83
2021/09/15 00:45:57;;;;;;;14.93;8.98;;;;;;;14.86;77.23;101610.98;1746334;82;21075;-83
2021/09/15 00:48:25;;;;;;;10.88;7.90;;;;;;;14.86;77.19;101614.08;1747372;81;21071;-83
2021/09/15 00:50:52;;;;;;;16.55;8.53;;;;;;;14.82;77.21;101617.09;1747508;82;21774;-83
2021/09/15 00:53:18;;;;;;;15.55;8.40;;;;;;;14.79;77.23;101615.72;1747421;81;21075;-83
2021/09/15 00:55:45;;;;;;;11.20;8.70;;;;;;;14.74;77.22;101618.25;1747342;82;21008;-84
2021/09/15 00:58:12;;;;;;;11.78;8.80;;;;;;;14.70;77.25;101620.81;1747468;82;21334;-84
2021/09/15 01:00:39;;;;;;;15.75;8.50;;;;;;;14.65;77.29;101616.72;1747473;81;21831;-83
2021/09/15 01:03:07;;;;;;;14.65;8.50;;;;;;;14.60;77.32;101620.13;1718794;82;21113;-84
2021/09/15 01:05:38;;;;;;;12.55;8.73;;;;;;;14.52;77.38;101616.84;1747426;81;21187;-83
2021/09/15 01:08:03;;;;;;;11.15;8.20;;;;;;;14.46;77.46;101619.80;1746089;81;21051;-84
2021/09/15 01:10:34;;;;;;;13.90;9.08;;;;;;;14.41;77.49;101617.46;1768781;80;21055;-85
2021/09/15 01:12:59;;;;;;;13.72;8.03;;;;;;;14.33;77.52;101612.87;1765260;81;21052;-84
2021/09/15 01:15:29;;;;;;;16.35;8.50;;;;;;;14.26;77.58;101611.38;1720389;81;22966;-84
2021/09/15 01:17:56;;;;;;;12.43;8.40;;;;;;;14.17;77.61;101606.33;1747232;82;21588;-84
2021/09/15 01:20:23;;;;;;;12.93;8.25;;;;;;;14.09;77.60;101606.56;1768818;79;21051;-84
2021/09/15 01:22:50;;;;;;;11.10;8.35;;;;;;;14.02;77.71;101609.94;1750304;81;21579;-84
2021/09/15 01:25:19;;;;;;;14.05;8.28;;;;;;;13.95;77.84;101602.70;1747489;82;21043;-84
2021/09/15 01:27:48;;;;;;;14.83;8.33;;;;;;;13.86;77.91;101602.03;1768477;79;21479;-84
2021/09/15 01:30:14;;;;;;;12.00;7.55;;;;;;;13.81;78.07;101599.69;1750487;81;21030;-84
2021/09/15 01:32:41;;;;;;;11.48;7.30;;;;;;;13.76;78.12;101600.91;1747591;82;21043;-84
2021/09/15 01:35:08;;;;;;;11.68;8.00;;;;;;;13.71;78.20;101603.86;1768871;80;21525;-84
2021/09/15 01:37:36;;;;;;;12.53;8.30;;;;;;;13.66;78.29;101603.27;1720716;83;21044;-84
2021/09/15 01:40:04;;;;;;;13.88;8.00;;;;;;;13.61;78.42;101601.41;1787791;80;21865;-84
2021/09/15 01:42:31;;;;;;;16.67;8.75;;;;;;;13.56;78.50;101599.05;1787779;80;21003;-84
2021/09/15 01:44:57;;;;;;;12.15;8.15;;;;;;;13.51;78.55;101602.00;1787877;80;21069;-84
2021/09/15 01:47:24;;;;;;;12.43;7.97;;;;;;;13.47;78.63;101605.42;1787663;80;21073;-84
2021/09/15 01:49:51;;;;;;;13.80;7.90;;;;;;;13.43;78.73;101606.20;1787874;80;21003;-84
2021/09/15 01:52:18;;;;;;;13.85;8.05;;;;;;;13.40;78.86;101611.39;1765803;80;22687;-84
2021/09/15 01:54:48;;;;;;;14.45;8.28;;;;;;;13.36;78.95;101614.81;1738884;82;21051;-84
2021/09/15 01:57:16;;;;;;;11.78;7.65;;;;;;;13.32;79.04;101610.30;1768252;79;21063;-83
2021/09/15 01:59:46;;;;;;;10.35;8.20;;;;;;;13.28;79.10;101612.36;1720613;83;21582;-83
2021/09/15 02:02:11;;;;;;;14.95;9.10;;;;;;;13.24;79.20;101611.38;1747159;82;21023;-83
2021/09/15 02:04:39;;;;;;;11.63;8.13;;;;;;;13.21;79.31;101613.52;1768849;80;21920;-83
2021/09/15 02:07:09;;;;;;;18.60;8.55;;;;;;;13.19;79.42;101614.31;1724609;82;21566;-83
2021/09/15 02:09:38;;;;;;;11.60;8.33;;;;;;;13.18;79.48;101607.26;1703032;84;21080;-82
2021/09/15 02:12:06;;;;;;;12.07;8.38;;;;;;;13.15;79.53;101612.01;1712867;83;21087;-83
2021/09/15 02:14:33;;;;;;;14.05;8.58;;;;;;;13.14;79.67;101610.23;1732874;82;21020;-82
2021/09/15 02:16:59;;;;;;;11.90;8.90;;;;;;;13.11;79.74;101603.53;1732851;82;21806;-83
2021/09/15 02:19:26;;;;;;;12.95;9.08;;;;;;;13.08;79.87;101600.78;1732631;82;21129;-82
2021/09/15 02:21:57;;;;;;;16.15;9.40;;;;;;;13.06;79.99;101599.85;1732717;82;22240;-82
2021/09/15 02:24:22;;;;;;;17.32;9.58;;;;;;;13.05;80.08;101592.80;1731615;82;21079;-83
2021/09/15 02:26:49;;;;;;;15.50;8.98;;;;;;;13.03;80.16;101591.42;1732969;82;21063;-83
2021/09/15 02:29:18;;;;;;;16.57;8.88;;;;;;;13.02;80.20;101592.26;1732706;82;21749;-82
2021/09/15 02:31:44;;;;;;;14.20;9.25;;;;;;;13.01;80.27;101588.28;1732853;82;21064;-81
2021/09/15 02:34:14;;;;;;;15.40;9.83;;;;;;;12.99;80.31;101587.34;1732867;82;21123;-82
2021/09/15 02:36:39;;;;;;;16.15;8.88;;;;;;;12.97;80.35;101585.97;1731735;82;21071;-82
2021/09/15 02:39:06;;;;;;;15.80;8.88;;;;;;;12.96;80.43;101585.92;1732759;82;21126;-82
2021/09/15 02:41:33;;;;;;;13.95;8.83;;;;;;;12.95;80.46;101586.36;1732651;82;21827;-81
2021/09/15 02:44:00;;;;;;;17.73;9.15;;;;;;;12.96;80.53;101584.59;1732814;82;21079;-82
2021/09/15 02:46:26;;;;;;;19.98;10.35;;;;;;;12.93;80.57;101577.89;1732674;82;21085;-82
2021/09/15 02:48:53;;;;;;;16.57;9.20;;;;;;;12.90;80.55;101581.79;1732745;82;21051;-82
2021/09/15 02:51:20;;;;;;;16.48;9.55;;;;;;;12.87;80.60;101581.69;1732636;82;21083;-82
2021/09/15 02:53:47;;;;;;;13.55;8.85;;;;;;;12.83;80.66;101573.66;1732799;82;21814;-82
2021/09/15 02:56:14;;;;;;;12.63;9.20;;;;;;;12.81;80.73;101578.01;1732732;82;21016;-82
2021/09/15 02:58:42;;;;;;;17.77;9.03;;;;;;;12.81;80.77;101570.52;1683040;82;21095;-81
2021/09/15 03:01:12;;;;;;;16.93;9.23;;;;;;;12.78;80.69;101571.34;1732667;82;21542;-82
2021/09/15 03:03:37;;;;;;;16.90;9.15;;;;;;;12.75;80.70;101569.91;1731605;82;21017;-82
2021/09/15 03:06:04;;;;;;;11.97;8.95;;;;;;;12.75;80.79;101566.39;1732736;82;21744;-82
2021/09/15 03:08:31;;;;;;;13.25;8.88;;;;;;;12.73;80.76;101565.45;1747047;81;21090;-82
2021/09/15 03:10:58;;;;;;;16.45;9.13;;;;;;;12.70;80.74;101566.67;1750264;82;21082;-83
2021/09/15 03:13:26;;;;;;;12.95;8.38;;;;;;;12.67;80.77;101570.53;1719838;82;21056;-83
2021/09/15 03:15:53;;;;;;;12.15;8.28;;;;;;;12.65;80.80;101573.16;1750495;82;21035;-83
2021/09/15 03:18:24;;;;;;;11.20;8.30;;;;;;;12.63;80.82;101565.58;1750357;82;21828;-82
2021/09/15 03:20:49;;;;;;;14.87;9.25;;;;;;;12.59;80.84;101568.58;1749408;81;21031;-83
2021/09/15 03:23:16;;;;;;;15.38;8.38;;;;;;;12.56;80.83;101568.48;1768911;81;21044;-83
2021/09/15 03:25:42;;;;;;;14.33;8.40;;;;;;;12.53;80.95;101578.05;1720608;83;21067;-83
2021/09/15 03:28:09;;;;;;;17.15;8.58;;;;;;;12.51;80.90;101580.64;1747528;82;21102;-83
2021/09/15 03:30:40;;;;;;;15.65;8.13;;;;;;;12.47;80.80;101577.88;1768848;80;22491;-83
2021/09/15 03:33:08;;;;;;;13.48;8.30;;;;;;;12.40;80.64;101580.30;1691284;83;21053;-84
2021/09/15 03:35:36;;;;;;;14.05;8.73;;;;;;;12.33;80.54;101576.11;1749009;81;21022;-83
2021/09/15 03:38:03;;;;;;;12.75;8.35;;;;;;;12.28;80.49;101581.27;1753726;81;21062;-83
2021/09/15 03:40:30;;;;;;;13.88;8.35;;;;;;;12.21;80.49;101581.48;1753723;81;21055;-83
2021/09/15 03:42:56;;;;;;;11.10;7.65;;;;;;;12.18;80.47;101582.72;1753731;81;22510;-83
2021/09/15 03:45:23;;;;;;;12.07;7.92;;;;;;;12.13;80.49;101584.31;1753433;81;21077;-83
2021/09/15 03:47:50;;;;;;;12.63;8.18;;;;;;;12.08;80.48;101578.41;1753680;81;21019;-83
2021/09/15 03:50:17;;;;;;;11.95;7.90;;;;;;;12.03;80.52;101576.53;1753729;81;21064;-82
2021/09/15 03:52:43;;;;;;;13.95;8.30;;;;;;;11.99;80.58;101572.41;1753347;81;21674;-83
2021/09/15 03:55:11;;;;;;;13.15;7.85;;;;;;;11.96;80.55;101571.89;1752859;81;22569;-83
2021/09/15 03:57:38;;;;;;;9.43;7.67;;;;;;;11.91;80.59;101568.20;1776438;80;21054;-82
2021/09/15 04:00:06;;;;;;;11.68;8.65;;;;;;;11.89;80.68;101566.34;1758067;81;21273;-82
2021/09/15 04:02:33;;;;;;;12.35;8.10;;;;;;;11.87;80.67;101571.56;1752666;81;21082;-82
2021/09/15 04:04:59;;;;;;;16.77;8.08;;;;;;;11.84;80.78;101573.69;1776435;80;21058;-81
2021/09/15 04:07:26;;;;;;;15.25;8.35;;;;;;;11.83;80.92;101571.88;1736937;81;21827;-82
2021/09/15 04:09:55;;;;;;;15.93;9.50;;;;;;;11.82;80.96;101572.73;1703035;83;21025;-82
2021/09/15 04:12:22;;;;;;;12.85;8.28;;;;;;;11.82;81.05;101574.06;1712616;83;21631;-85
2021/09/15 04:14:49;;;;;;;15.45;8.58;;;;;;;11.81;81.07;101572.25;1732459;82;21067;-83
2021/09/15 04:17:16;;;;;;;12.95;8.83;;;;;;;11.81;81.13;101563.02;1732853;82;21036;-82
2021/09/15 04:19:43;;;;;;;14.53;8.63;;;;;;;11.82;81.20;101564.83;1732867;82;21800;-84
2021/09/15 04:22:16;;;;;;;15.75;9.40;;;;;;;11.84;81.25;101562.21;1732833;82;21091;-82
2021/09/15 04:32:57;;;;;;;13.53;8.88;;;;;;;11.87;81.28;101548.70;1619972;88;21753;-92
2021/09/15 04:35:26;;;;;;;14.43;8.60;;;;;;;11.92;81.37;101554.58;1592354;88;21143;-91
2021/09/15 04:37:53;;;;;;;12.30;8.18;;;;;;;12.34;82.23;101559.44;1619946;88;21162;-91
2021/09/15 04:40:23;;;;;;;11.35;7.95;;;;;;;12.87;82.31;101562.76;1592296;90;21248;-93
2021/09/15 04:42:51;;;;;;;14.45;8.53;;;;;;;13.45;81.96;101563.94;1619928;88;21027;-89
2021/09/15 04:45:18;;;;;;;12.80;7.92;;;;;;;14.05;81.50;101569.40;1593032;90;21746;-93
2021/09/15 04:47:47;;;;;;;12.05;7.95;;;;;;;14.67;80.94;101555.81;1618875;88;21113;-82
2021/09/15 04:50:14;;;;;;;11.60;7.97;;;;;;;15.30;80.25;101555.74;1591783;90;21130;-80
2021/09/15 04:52:41;;;;;;;15.05;7.50;;;;;;;15.93;79.69;101555.51;1618806;88;21107;-82
2021/09/15 04:55:10;;;;;;;12.30;6.97;;;;;;;16.49;78.48;101550.58;1591995;90;21145;-81
2021/09/15 04:57:42;;;;;;;13.00;8.08;;;;;;;16.73;77.26;101551.33;1618945;88;21793;-81
2021/09/15 05:00:08;;;;;;;10.38;7.67;;;;;;;16.70;75.72;101548.63;1618851;87;21216;-80
2021/09/15 05:02:35;;;;;;;16.00;8.18;;;;;;;16.46;74.72;101556.75;1618880;88;21059;-82
2021/09/15 05:05:01;;;;;;;14.63;9.23;;;;;;;16.19;74.31;101561.66;1640915;87;21134;-82
2021/09/15 05:07:28;;;;;;;11.63;8.60;;;;;;;15.99;74.40;101565.33;1622915;85;21783;-82
2021/09/15 05:09:59;;;;;;;14.07;8.88;;;;;;;15.81;74.29;101564.17;1717436;82;21274;-82
2021/09/15 05:12:24;;;;;;;11.93;9.23;;;;;;;15.66;74.25;101563.45;1746294;82;21554;-82
2021/09/15 05:14:51;;;;;;;15.63;8.03;;;;;;;15.53;74.37;101558.36;1747514;82;21015;-83
2021/09/15 05:17:17;;;;;;;17.42;9.05;;;;;;;15.47;74.55;101558.26;1747351;82;21095;-81
2021/09/15 05:19:47;;;;;;;14.33;8.65;;;;;;;15.44;74.65;101570.13;1747066;82;21106;-82
2021/09/15 05:22:13;;;;;;;13.03;8.58;;;;;;;15.40;74.58;101573.59;1746961;81;21431;-82
2021/09/15 05:24:39;;;;;;;19.23;8.45;;;;;;;15.37;74.75;101566.90;1747469;82;21050;-82
2021/09/15 05:27:06;;;;;;;13.90;8.03;;;;;;;15.33;74.58;101567.72;1747333;82;21134;-82
2021/09/15 05:29:37;;;;;;;12.40;7.95;;;;;;;15.30;74.78;101576.52;1747193;82;21047;-82
2021/09/15 05:32:02;;;;;;;12.65;8.88;;;;;;;15.29;74.92;101582.67;1746135;82;21023;-82
2021/09/15 05:34:29;;;;;;;8.50;6.92;;;;;;;15.28;75.05;101578.25;1747340;81;21766;-82
2021/09/15 05:36:56;;;;;;;12.30;7.00;;;;;;;15.27;75.08;101575.13;1747058;82;21063;-82
2021/09/15 05:39:22;;;;;;;13.00;6.70;;;;;;;15.24;75.17;101580.39;1747206;82;21105;-83
2021/09/15 05:41:49;;;;;;;13.00;7.87;;;;;;;15.24;75.20;101585.70;1747220;81;21059;-82
2021/09/15 05:44:16;;;;;;;15.00;6.55;;;;;;;15.23;75.41;101582.56;1747245;82;21070;-82
2021/09/15 05:46:43;;;;;;;11.38;6.92;;;;;;;15.19;75.30;101583.38;1747381;81;21759;-83
2021/09/15 05:49:09;;;;;;;10.00;5.90;;;;;;;15.16;75.36;101592.59;1747293;81;21067;-82
2021/09/15 05:51:36;;;;;;;10.25;6.00;;;;;;;15.14;75.58;101595.20;1747291;82;21028;-83
2021/09/15 05:54:04;;;;;;;13.10;6.87;;;;;;;15.17;75.68;101586.44;1747312;82;21552;-82
2021/09/15 05:56:31;;;;;;;11.95;7.30;;;;;;;15.18;75.66;101588.20;1747127;82;21079;-83
2021/09/15 05:58:58;;;;;;;9.08;6.33;;;;;;;15.21;75.73;101586.95;1747311;82;21713;-83
2021/09/15 06:01:24;;;;;;;10.70;6.60;;;;;;;15.24;75.83;101584.78;1747296;82;21622;-82
2021/09/15 06:03:51;;;;;;;16.25;7.12;;;;;;;15.28;75.94;101584.89;1747442;82;21059;-82
2021/09/15 06:06:18;;;;;;;10.30;6.42;;;;;;;15.33;75.91;101577.91;1747287;82;21066;-82
2021/09/15 06:08:45;;;;;;;13.48;6.65;;;;;;;15.36;75.98;101579.28;1746643;81;21063;-83
2021/09/15 06:11:12;;;;;;;10.45;6.70;;;;;;;15.43;76.10;101571.02;1746197;82;21969;-83
2021/09/15 06:13:38;;;;;;;18.45;6.17;;;;;;;15.50;76.10;101566.69;1782909;80;21074;-83
2021/09/15 06:16:06;;;;;;;10.32;6.12;;;;;;;15.53;76.02;101563.66;1782748;80;21520;-82
2021/09/15 06:18:33;;;;;;;12.58;6.00;;;;;;;15.58;76.09;101561.52;1782746;80;21007;-82
2021/09/15 06:21:02;;;;;;;14.38;6.80;;;;;;;15.63;76.03;101563.38;1757457;80;21124;-82
2021/09/15 06:23:31;;;;;;;11.50;5.97;;;;;;;15.68;76.06;101564.36;1782693;80;21771;-82
2021/09/15 06:25:59;;;;;;;11.63;6.83;;;;;;;15.76;76.12;101567.18;1782727;80;21054;-82
2021/09/15 06:28:29;;;;;;;12.40;6.03;;;;;;;15.83;76.25;101565.09;1781650;80;21067;-82
2021/09/15 06:30:57;;;;;;;9.43;5.95;;;;;;;15.92;76.30;101560.38;1782780;80;21538;-83
2021/09/15 06:33:24;;;;;;;11.97;6.40;;;;;;;16.00;76.30;101565.80;1782854;80;21121;-82
2021/09/15 06:35:51;;;;;;;17.15;7.28;;;;;;;16.05;76.16;101566.34;1782888;80;22507;-82
2021/09/15 06:38:19;;;;;;;16.15;7.50;;;;;;;16.11;76.03;101562.44;1782752;80;21066;-81
2021/09/15 06:40:45;;;;;;;8.25;6.42;;;;;;;16.18;76.01;101558.53;1782734;80;21532;-81
2021/09/15 06:43:12;;;;;;;11.97;7.17;;;;;;;16.23;75.86;101563.05;1782612;80;21059;-81
2021/09/15 06:45:39;;;;;;;11.88;6.83;;;;;;;16.29;75.85;101566.23;1782793;80;21604;-83
2021/09/15 06:48:07;;;;;;;12.18;6.17;;;;;;;16.37;75.89;101563.67;1781777;80;21066;-82
2021/09/15 06:50:34;;;;;;;12.50;6.42;;;;;;;16.46;75.87;101555.84;1782709;80;20996;-84
2021/09/15 06:53:00;;;;;;;9.00;6.08;;;;;;;16.51;75.77;101551.48;1782871;80;21092;-83
2021/09/15 06:55:27;;;;;;;12.20;6.20;;;;;;;16.61;75.73;101556.48;1782978;80;21121;-82
2021/09/15 06:57:56;;;;;;;8.83;5.85;;;;;;;16.68;75.58;101559.67;1782258;80;21571;-82
2021/09/15 07:00:22;;;;;;;8.00;4.42;;;;;;;16.75;75.46;101558.89;1783271;80;21826;-82
2021/09/15 07:02:49;;;;;;;8.63;5.28;;;;;;;16.81;75.36;101560.28;1782974;80;20980;-82
2021/09/15 07:05:16;;;;;;;7.28;4.22;;;;;;;16.88;75.31;101558.64;1783205;80;21633;-82
2021/09/15 07:07:43;;;;;;;5.12;4.35;;;;;;;16.95;75.04;101553.86;1783144;80;21031;-82
2021/09/15 07:10:10;;;;;;;7.53;5.05;;;;;;;17.02;74.97;101553.47;1771655;80;21013;-82
2021/09/15 07:12:38;;;;;;;7.87;4.80;;;;;;;17.11;74.91;101561.55;1771577;81;21791;-82
2021/09/15 07:15:07;;;;;;;6.45;4.72;;;;;;;17.18;74.75;101571.39;1771649;80;21114;-82
2021/09/15 07:17:34;;;;;;;10.15;5.45;;;;;;;17.26;74.64;101571.02;1771651;80;21145;-81
2021/09/15 07:20:01;;;;;;;7.83;5.00;;;;;;;17.33;74.31;101569.78;1771555;80;21067;-82
2021/09/15 07:22:27;;;;;;;6.62;4.70;;;;;;;17.36;73.93;101570.71;1771525;80;21130;-82
2021/09/15 07:24:54;;;;;;;5.62;4.30;;;;;;;17.37;73.67;101568.94;1771613;80;22556;-82
2021/09/15 07:27:21;;;;;;;5.95;4.92;;;;;;;17.42;73.86;101562.78;1771471;81;21039;-82
2021/09/15 07:29:47;;;;;;;7.62;4.90;;;;;;;17.48;73.84;101561.50;1771440;80;21054;-82
2021/09/15 07:32:16;;;;;;;7.97;5.05;;;;;;;17.58;73.77;101560.25;1744530;81;21167;-82
2021/09/15 07:34:45;;;;;;;8.68;4.85;;;;;;;17.62;73.53;101556.28;1771635;80;21050;-82
2021/09/15 07:37:13;;;;;;;8.83;4.05;;;;;;;17.68;73.48;101556.78;1771580;81;22558;-82
2021/09/15 07:39:39;;;;;;;9.65;4.85;;;;;;;17.74;73.41;101561.30;1771507;81;21086;-81
2021/09/15 07:42:07;;;;;;;6.10;4.10;;;;;;;17.81;73.24;101561.36;1771650;80;21015;-82
2021/09/15 07:44:33;;;;;;;7.62;4.20;;;;;;;17.87;73.05;101553.89;1771667;81;21534;-82
2021/09/15 07:47:00;;;;;;;7.97;5.00;;;;;;;17.90;72.92;101545.91;1771694;80;21035;-82
2021/09/15 07:49:30;;;;;;;7.87;4.55;;;;;;;17.86;72.37;101540.11;1771752;81;21729;-82
2021/09/15 07:51:57;;;;;;;7.50;5.87;;;;;;;17.83;72.39;101542.70;1771924;80;21490;-81
2021/09/15 07:54:24;;;;;;;6.80;4.20;;;;;;;17.81;72.34;101546.71;1771877;81;21067;-82
2021/09/15 07:56:53;;;;;;;8.78;4.70;;;;;;;17.83;72.26;101550.27;1772089;80;21067;-81
2021/09/15 07:59:20;;;;;;;8.13;4.17;;;;;;;17.87;72.46;101548.11;1772074;81;21000;-82
2021/09/15 08:01:47;;;;;;;9.48;6.17;;;;;;;17.92;72.44;101554.79;1772009;81;21719;-82
2021/09/15 08:04:14;;;;;;;6.83;5.03;;;;;;;17.95;72.19;101558.82;1771922;81;21545;-82
2021/09/15 08:06:40;;;;;;;6.15;5.10;;;;;;;17.99;72.12;101557.08;1771990;80;21036;-82
2021/09/15 08:09:07;;;;;;;8.58;4.40;;;;;;;18.04;72.14;101557.56;1771586;80;21047;-82
2021/09/15 08:11:34;;;;;;;5.05;3.60;;;;;;;18.11;71.93;101557.14;1771402;81;21066;-82
2021/09/15 08:14:01;;;;;;;6.83;3.77;;;;;;;18.15;71.56;101546.07;1771646;80;21597;-82
2021/09/15 08:16:28;;;;;;;7.60;4.25;;;;;;;18.20;71.61;101553.21;1771512;81;21050;-81
2021/09/15 08:18:56;;;;;;;5.65;3.80;;;;;;;18.26;71.30;101555.02;1771583;81;21032;-82
2021/09/15 08:21:22;;;;;;;6.67;4.95;;;;;;;18.29;71.10;101549.72;1771639;80;21106;-82
2021/09/15 08:23:49;;;;;;;6.83;3.90;;;;;;;18.28;70.86;101542.59;1771536;81;21075;-82
2021/09/15 08:26:17;;;;;;;5.53;3.70;;;;;;;18.30;70.74;101542.19;1771596;80;21760;-82
2021/09/15 08:28:45;;;;;;;4.30;3.45;;;;;;;18.31;70.45;101539.08;1771514;80;21023;-82
2021/09/15 08:31:12;;;;;;;8.43;4.50;;;;;;;18.30;70.36;101540.86;1745819;81;21122;-82
2021/09/15 08:33:38;;;;;;;5.58;4.40;;;;;;;18.32;70.37;101547.09;1771804;80;21039;-82
2021/09/15 08:36:05;;;;;;;5.25;4.42;;;;;;;18.34;70.21;101550.65;1771741;80;21071;-82
2021/09/15 08:38:32;;;;;;;6.55;4.85;;;;;;;18.37;70.13;101551.09;1771685;80;21744;-82
2021/09/15 08:40:59;;;;;;;8.83;4.67;;;;;;;18.35;70.02;101544.87;1771589;80;21068;-82
2021/09/15 08:43:25;;;;;;;4.78;3.40;;;;;;;18.43;70.03;101549.79;1771503;80;21577;-82
2021/09/15 08:45:56;;;;;;;4.20;3.37;;;;;;;18.47;69.60;101547.61;1771402;80;21583;-81
2021/09/15 08:48:23;;;;;;;3.90;3.02;;;;;;;18.51;69.61;101545.41;1771688;80;21086;-81
2021/09/15 08:50:51;;;;;;;5.42;3.92;;;;;;;18.60;69.58;101545.45;1696344;81;21047;-82
2021/09/15 08:53:18;;;;;;;3.95;3.50;;;;;;;18.66;69.20;101532.59;1771784;80;21043;-82
2021/09/15 08:55:46;;;;;;;8.08;3.67;;;;;;;18.68;68.97;101534.81;1771817;81;21087;-82
2021/09/15 08:58:14;;;;;;;6.22;3.62;;;;;;;18.72;69.00;101534.39;1770908;80;21007;-82
2021/09/15 09:00:43;;;;;;;4.85;3.08;;;;;;;18.80;68.71;101544.63;1778095;80;21088;-81
2021/09/15 09:03:09;;;;;;;4.05;3.35;;;;;;;18.88;68.86;101538.02;1780646;80;22360;-82
2021/09/15 09:05:36;;;;;;;5.47;3.12;;;;;;;19.00;68.75;101542.08;1780266;80;21091;-82
2021/09/15 09:08:05;;;;;;;2.87;2.58;;;;;;;19.11;68.62;101538.11;1780442;80;21079;-82
2021/09/15 09:10:33;;;;;;;3.17;2.20;;;;;;;19.25;68.36;101530.12;1770137;79;21075;-82
2021/09/15 09:13:00;;;;;;;3.42;2.30;;;;;;;19.41;67.92;101536.81;1771617;81;21079;-82
2021/09/15 09:15:27;;;;;;;4.47;2.58;;;;;;;19.50;67.31;101533.27;1771767;80;21700;-82
2021/09/15 09:18:00;;;;;;;3.65;2.17;;;;;;;19.57;67.06;101527.47;1771689;79;21009;-82
2021/09/15 09:20:35;;;;;;;3.52;2.45;;;;;;;19.66;66.89;101526.14;1771369;79;21154;-82
2021/09/15 09:23:10;;;;;;;2.98;2.22;;;;;;;19.74;66.56;101521.70;1771654;80;21052;-82
2021/09/15 09:25:54;;;;;;;2.22;2.02;;;;;;;19.85;66.35;101524.83;1771700;80;21629;-82
2021/09/15 09:28:32;;;;;;;3.00;2.40;;;;;;;19.90;65.89;101524.39;1771687;80;21812;-82
2021/09/15 09:31:02;;;;;;;2.70;1.98;;;;;;;19.84;65.64;101522.61;1771295;80;21510;-82
2021/09/15 09:33:28;;;;;;;3.55;2.47;;;;;;;19.79;65.59;101519.93;1771376;80;21677;-83
2021/09/15 09:36:06;;;;;;;2.95;2.52;;;;;;;19.74;65.62;101512.81;1771759;79;21592;-82
2021/09/15 09:38:39;;;;;;;7.05;3.02;;;;;;;19.70;65.55;101507.00;1771718;80;21064;-82
2021/09/15 09:41:15;;;;;;;8.53;3.10;;;;;;;19.67;65.48;101502.56;1771856;80;22473;-82
2021/09/15 09:43:50;;;;;;;4.33;2.83;;;;;;;19.64;65.45;101503.00;1771830;80;21032;-82
2021/09/15 09:46:21;;;;;;;3.75;2.60;;;;;;;19.65;65.37;101503.43;1771592;80;21111;-82
2021/09/15 09:48:57;;;;;;;3.33;2.95;;;;;;;19.65;65.22;101507.44;1769418;80;21091;-82
2021/09/15 09:51:36;;;;;;;8.15;3.15;;;;;;;19.65;65.25;101509.66;1770564;80;21581;-82
2021/09/15 09:54:23;;;;;;;5.35;3.52;;;;;;;19.69;65.14;101510.55;1771280;81;21990;-82
2021/09/15 09:56:52;;;;;;;4.75;2.62;;;;;;;19.65;64.81;101502.98;1771479;79;21056;-82
2021/09/15 09:59:20;;;;;;;7.05;3.83;;;;;;;19.57;64.70;101508.33;1771687;80;21499;-83
2021/09/15 10:01:49;;;;;;;4.15;2.50;;;;;;;19.61;64.96;101510.12;1771682;80;22293;-83
2021/09/15 10:04:17;;;;;;;6.05;2.37;;;;;;;19.77;65.23;101516.38;1771580;81;21177;-83
2021/09/15 10:06:44;;;;;;;3.60;2.50;;;;;;;20.04;65.16;101511.87;1771378;81;21850;-82
2021/09/15 10:09:12;;;;;;;3.55;2.30;;;;;;;20.27;64.74;101514.52;1766149;80;21617;-82
2021/09/15 10:11:40;;;;;;;5.67;4.33;;;;;;;20.45;64.55;101510.88;1740679;82;21059;-82
2021/09/15 10:14:16;;;;;;;6.15;2.42;;;;;;;20.64;64.28;101502.81;1721628;83;21122;-82
2021/09/15 10:16:54;;;;;;;3.37;1.85;;;;;;;20.81;63.85;101496.03;1721887;83;21078;-82
2021/09/15 10:19:27;;;;;;;3.77;2.02;;;;;;;20.76;63.06;101490.27;1710770;83;21772;-82
2021/09/15 10:21:59;;;;;;;3.02;1.90;;;;;;;20.74;62.92;101485.38;1721720;83;22006;-82
2021/09/15 10:24:58;;;;;;;2.37;1.87;;;;;;;20.73;62.70;101486.26;1721649;83;21063;-82
2021/09/15 10:27:30;;;;;;;3.92;2.27;;;;;;;20.68;62.43;101472.01;1721734;83;21078;-82
2021/09/15 10:30:10;;;;;;;5.95;2.20;;;;;;;20.61;62.17;101476.98;1721323;83;21031;-82
2021/09/15 10:32:39;;;;;;;3.20;2.17;;;;;;;20.54;62.34;101473.39;1721523;83;21840;-81
2021/09/15 10:35:08;;;;;;;5.15;3.30;;;;;;;20.66;62.68;101471.59;1721599;83;21135;-81
2021/09/15 10:37:40;;;;;;;4.62;2.15;;;;;;;20.85;62.95;101475.05;1695163;83;21082;-81
2021/09/15 10:40:10;;;;;;;3.42;2.02;;;;;;;21.06;62.81;101471.34;1721686;83;21086;-82
2021/09/15 10:42:48;;;;;;;2.75;2.20;;;;;;;21.18;62.18;101469.05;1721427;82;21146;-82
2021/09/15 10:45:22;;;;;;;2.35;2.00;;;;;;;21.11;61.74;101469.52;1717184;83;22472;-82
2021/09/15 10:47:59;;;;;;;2.45;1.90;;;;;;;21.01;61.61;101471.38;1721740;83;21056;-82
2021/09/15 10:50:35;;;;;;;3.27;1.95;;;;;;;20.98;61.77;101476.75;1721640;83;21074;-81
2021/09/15 10:53:12;;;;;;;4.20;2.27;;;;;;;20.95;61.37;101470.09;1721646;83;21070;-81
2021/09/15 10:55:53;;;;;;;2.33;1.80;;;;;;;20.89;61.37;101471.02;1721611;83;21035;-82
2021/09/15 10:58:24;;;;;;;3.55;2.55;;;;;;;20.77;61.10;101462.59;1721618;83;22339;-82
2021/09/15 11:00:55;;;;;;;5.40;2.40;;;;;;;20.71;60.92;101476.47;1721573;83;21272;-81
2021/09/15 11:03:38;;;;;;;3.20;2.55;;;;;;;20.66;61.05;101468.91;1721834;83;21134;-82
2021/09/15 11:06:15;;;;;;;3.80;2.83;;;;;;;20.66;61.14;101476.48;1721825;83;21218;-82
2021/09/15 11:08:43;;;;;;;3.22;2.90;;;;;;;20.69;61.18;101476.94;1721737;83;21187;-81
2021/09/15 11:11:12;;;;;;;3.00;2.60;;;;;;;20.70;60.96;101476.94;1718527;83;21824;-82
2021/09/15 11:13:45;;;;;;;4.35;2.95;;;;;;;20.74;60.96;101472.00;1715153;83;21012;-82
2021/09/15 11:16:30;;;;;;;4.80;2.87;;;;;;;20.84;60.97;101475.96;1718339;82;21079;-82
2021/09/15 11:19:11;;;;;;;5.05;2.75;;;;;;;20.93;60.97;101482.59;1718381;82;21075;-82
2021/09/15 11:21:55;;;;;;;5.22;3.42;;;;;;;21.03;60.95;101470.92;1718265;82;21106;-82
2021/09/15 11:24:26;;;;;;;3.83;2.47;;;;;;;21.11;60.64;101470.86;1718613;82;21790;-83
2021/09/15 11:26:56;;;;;;;4.47;2.70;;;;;;;21.07;60.34;101467.77;1725691;83;21812;-82
2021/09/15 11:29:52;;;;;;;4.28;2.90;;;;;;;21.09;60.30;101465.52;1741949;81;21607;-82
2021/09/15 11:32:18;;;;;;;3.72;3.08;;;;;;;21.13;60.12;101459.27;1726109;83;21094;-82
2021/09/15 11:34:50;;;;;;;4.03;3.02;;;;;;;21.14;60.03;101453.45;1726253;83;21109;-82